Time;durP1;ratioP1;P1;durP2;ratioP2;P2;SDS_P1;SDS_P2;PMS_P1;PMS_P2;Temp;Humidity;BMP_temperature;BMP_pressure;BME280_temperature;BME280_humidity;BME280_pressure;Samples;Min_cycle;Max_cycle;Signal;HPM_P1;HPM_P2
2022/10/09 00:01:13;;;;;;;4.00;2.60;;;9.50;64.50;;;;;;5042142;28;20027;-85
2022/10/09 00:03:41;;;;;;;5.32;2.50;;;9.40;64.90;;;;;;5040217;28;20051;-84
2022/10/09 00:06:09;;;;;;;4.13;2.50;;;9.50;65.40;;;;;;5043254;28;20435;-85
2022/10/09 00:08:38;;;;;;;4.18;2.40;;;9.40;64.70;;;;;;5050078;28;20316;-84
2022/10/09 00:11:08;;;;;;;5.17;2.73;;;9.40;64.70;;;;;;5043268;28;20028;-85
2022/10/09 00:13:34;;;;;;;3.50;2.53;;;9.30;64.90;;;;;;5032036;28;20340;-85
2022/10/09 00:16:05;;;;;;;4.05;2.60;;;9.30;64.70;;;;;;5051277;28;20012;-84
2022/10/09 00:18:32;;;;;;;4.18;2.33;;;9.30;65.20;;;;;;5035274;28;20305;-84
2022/10/09 00:20:57;;;;;;;3.42;2.30;;;9.30;64.90;;;;;;5059435;28;20016;-84
2022/10/09 00:23:23;;;;;;;4.23;2.30;;;9.20;64.80;;;;;;5059683;28;20074;-84
2022/10/09 00:26:00;;;;;;;4.07;2.30;;;9.20;64.90;;;;;;5062590;28;20224;-84
2022/10/09 00:28:28;;;;;;;4.25;2.38;;;9.20;65.80;;;;;;5042860;28;20016;-84
2022/10/09 00:30:54;;;;;;;3.80;2.30;;;9.10;65.10;;;;;;5043124;28;20016;-84
2022/10/09 00:33:20;;;;;;;4.35;2.58;;;9.10;65.20;;;;;;5043986;28;20055;-84
2022/10/09 00:35:46;;;;;;;3.97;2.22;;;9.10;65.30;;;;;;5057740;28;20264;-84
2022/10/09 00:38:12;;;;;;;4.17;2.27;;;9.00;65.20;;;;;;5055862;28;20024;-84
2022/10/09 00:40:38;;;;;;;4.20;2.40;;;9.00;65.20;;;;;;5061600;28;20044;-84
2022/10/09 00:43:17;;;;;;;4.05;2.22;;;9.00;65.30;;;;;;5043887;28;20559;-84
2022/10/09 00:45:48;;;;;;;3.37;2.27;;;9.00;66.20;;;;;;5048526;28;20036;-84
2022/10/09 00:48:16;;;;;;;3.63;2.22;;;8.90;65.70;;;;;;5065237;28;20039;-84
2022/10/09 00:50:49;;;;;;;3.00;2.10;;;8.90;65.50;;;;;;5053633;28;20026;-84
2022/10/09 00:53:19;;;;;;;3.65;2.25;;;8.90;65.90;;;;;;5059762;28;20020;-84
2022/10/09 00:55:44;;;;;;;3.80;2.53;;;8.90;65.70;;;;;;5058808;28;20035;-83
2022/10/09 00:58:11;;;;;;;4.03;2.13;;;8.80;65.60;;;;;;5061945;28;20473;-84
2022/10/09 01:00:38;;;;;;;3.55;2.13;;;8.80;65.80;;;;;;5037575;28;20005;-81
2022/10/09 01:03:03;;;;;;;3.80;2.10;;;8.70;65.60;;;;;;5045342;28;20393;-80
2022/10/09 01:05:48;;;;;;;3.90;2.40;;;8.70;65.50;;;;;;5055496;28;20044;-81
2022/10/09 01:08:16;;;;;;;3.70;2.20;;;8.70;66.90;;;;;;5058367;28;20694;-81
2022/10/09 01:11:18;;;;;;;3.33;2.35;;;8.70;65.60;;;;;;5062125;28;20284;-81
2022/10/09 01:13:47;;;;;;;3.30;2.30;;;8.60;67.10;;;;;;5065599;28;20507;-81
2022/10/09 01:16:31;;;;;;;3.55;2.30;;;8.60;65.80;;;;;;5038556;28;20044;-81
2022/10/09 01:19:11;;;;;;;3.50;2.30;;;8.60;65.90;;;;;;5053325;28;20246;-81
2022/10/09 01:21:56;;;;;;;3.78;2.33;;;8.50;66.40;;;;;;5057527;28;20017;-81
2022/10/09 01:24:36;;;;;;;4.10;2.60;;;8.50;66.30;;;;;;5059787;28;20025;-81
2022/10/09 01:27:04;;;;;;;3.88;2.35;;;8.40;66.30;;;;;;5058416;28;20663;-81
2022/10/09 01:29:39;;;;;;;4.90;2.30;;;8.40;66.10;;;;;;5066007;28;20120;-80
2022/10/09 01:32:08;;;;;;;4.03;2.13;;;8.40;66.30;;;;;;5042302;28;21712;-80
2022/10/09 01:34:36;;;;;;;4.72;2.55;;;8.40;66.20;;;;;;5052457;28;20036;-80
2022/10/09 01:37:02;;;;;;;3.92;2.40;;;8.30;66.10;;;;;;5056584;28;20020;-81
2022/10/09 01:39:29;;;;;;;3.67;2.20;;;8.30;66.20;;;;;;5061989;28;20028;-80
2022/10/09 01:41:56;;;;;;;2.65;1.92;;;8.30;66.30;;;;;;5062015;28;20268;-81
2022/10/09 01:44:27;;;;;;;3.70;2.10;;;8.20;66.10;;;;;;5040509;28;20025;-80
2022/10/09 01:46:54;;;;;;;3.92;2.42;;;8.20;66.40;;;;;;5035622;28;20708;-81
2022/10/09 01:49:46;;;;;;;5.95;2.47;;;8.20;66.40;;;;;;5059037;28;20064;-81
2022/10/09 01:52:24;;;;;;;4.03;2.15;;;8.20;67.50;;;;;;5063916;28;20030;-80
2022/10/09 01:55:12;;;;;;;3.45;2.30;;;8.10;67.20;;;;;;5052051;28;20617;-81
2022/10/09 01:58:03;;;;;;;3.20;1.90;;;8.10;67.20;;;;;;5064107;28;20115;-80
2022/10/09 02:00:34;;;;;;;2.80;1.85;;;8.10;67.00;;;;;;5059375;28;20552;-81
2022/10/09 02:03:03;;;;;;;3.63;2.00;;;8.10;66.80;;;;;;5027548;28;20971;-80
2022/10/09 02:05:30;;;;;;;3.20;1.90;;;8.00;66.70;;;;;;5058380;28;20078;-80
2022/10/09 02:07:57;;;;;;;3.17;2.00;;;8.00;66.60;;;;;;5034431;28;20556;-80
2022/10/09 02:10:23;;;;;;;3.47;2.10;;;8.00;66.70;;;;;;5060318;28;20236;-80
2022/10/09 02:12:56;;;;;;;3.65;2.20;;;8.00;66.80;;;;;;5054700;28;20055;-80
2022/10/09 02:15:26;;;;;;;2.83;1.80;;;8.00;67.00;;;;;;5055847;28;20079;-80
2022/10/09 02:17:55;;;;;;;3.22;1.80;;;7.90;66.80;;;;;;5042450;28;20040;-80
2022/10/09 02:20:26;;;;;;;2.70;1.90;;;8.00;67.00;;;;;;5062039;28;20158;-80
2022/10/09 02:22:54;;;;;;;3.90;1.80;;;7.90;67.10;;;;;;5049495;28;20085;-80
2022/10/09 02:25:20;;;;;;;2.70;2.00;;;7.90;66.80;;;;;;5057527;28;20032;-80
2022/10/09 02:27:46;;;;;;;3.80;1.92;;;7.80;66.80;;;;;;5049026;28;20024;-80
2022/10/09 02:30:13;;;;;;;3.13;2.00;;;7.80;67.00;;;;;;5054369;28;22309;-80
2022/10/09 02:32:39;;;;;;;2.67;1.77;;;7.80;67.00;;;;;;5057689;28;20024;-80
2022/10/09 02:35:05;;;;;;;3.63;2.07;;;7.80;67.20;;;;;;5055163;28;20560;-80
2022/10/09 02:37:31;;;;;;;4.15;1.90;;;7.80;67.20;;;;;;5063868;28;20056;-80
2022/10/09 02:39:57;;;;;;;2.33;1.80;;;7.80;67.20;;;;;;5057357;28;20417;-80
2022/10/09 02:42:24;;;;;;;2.97;2.00;;;7.80;67.20;;;;;;5060352;28;20447;-80
2022/10/09 02:44:50;;;;;;;3.13;2.13;;;7.70;67.30;;;;;;5064797;28;20241;-80
2022/10/09 02:47:16;;;;;;;4.82;2.10;;;7.70;67.20;;;;;;5044456;28;20016;-80
2022/10/09 02:49:41;;;;;;;3.50;2.20;;;7.70;67.30;;;;;;5023454;28;20492;-80
2022/10/09 02:52:07;;;;;;;3.25;1.95;;;7.70;67.50;;;;;;5047478;28;20024;-80
2022/10/09 02:54:33;;;;;;;2.97;2.00;;;7.70;67.30;;;;;;5057154;28;20675;-80
2022/10/09 02:56:58;;;;;;;3.88;2.15;;;7.60;67.30;;;;;;5066533;28;20131;-80
2022/10/09 02:59:24;;;;;;;2.93;2.10;;;7.60;67.50;;;;;;5036467;28;20301;-80
2022/10/09 03:01:50;;;;;;;3.55;2.20;;;7.60;67.50;;;;;;5056999;28;20046;-80
2022/10/09 03:04:15;;;;;;;3.20;2.17;;;7.60;67.60;;;;;;5041971;28;20433;-80
2022/10/09 03:06:41;;;;;;;3.73;2.00;;;7.50;67.50;;;;;;5043781;28;20024;-80
2022/10/09 03:09:06;;;;;;;3.25;2.03;;;7.50;67.70;;;;;;5048072;28;20405;-80
2022/10/09 03:11:32;;;;;;;2.97;1.97;;;7.50;67.70;;;;;;5069416;28;20032;-80
2022/10/09 03:13:58;;;;;;;3.42;1.92;;;7.50;67.70;;;;;;5065292;28;20648;-80
2022/10/09 03:16:24;;;;;;;2.90;1.90;;;7.50;67.70;;;;;;5051569;28;20650;-80
2022/10/09 03:18:51;;;;;;;3.38;1.77;;;7.40;67.80;;;;;;5061246;28;20416;-80
2022/10/09 03:21:22;;;;;;;3.10;2.00;;;7.40;67.80;;;;;;5047744;28;20024;-80
2022/10/09 03:23:48;;;;;;;2.53;1.63;;;7.40;68.00;;;;;;5060029;28;20028;-80
2022/10/09 03:26:17;;;;;;;4.10;2.10;;;7.40;67.80;;;;;;5057573;28;20184;-80
2022/10/09 03:28:47;;;;;;;2.67;1.80;;;7.40;68.00;;;;;;5040436;28;20228;-80
2022/10/09 03:31:18;;;;;;;3.65;1.90;;;7.40;67.90;;;;;;5067110;28;20023;-80
2022/10/09 03:33:44;;;;;;;2.67;1.70;;;7.40;68.20;;;;;;5039439;28;20446;-80
2022/10/09 03:36:10;;;;;;;2.47;1.73;;;7.30;67.90;;;;;;5050908;28;20097;-80
2022/10/09 03:38:35;;;;;;;3.13;1.80;;;7.30;67.90;;;;;;5059993;28;20032;-80
2022/10/09 03:41:03;;;;;;;2.85;1.83;;;7.30;68.10;;;;;;5078502;28;20259;-80
2022/10/09 03:43:28;;;;;;;4.93;2.10;;;7.30;68.10;;;;;;5064471;28;20024;-80
2022/10/09 03:45:54;;;;;;;2.80;1.70;;;7.30;68.90;;;;;;5053184;28;20316;-80
2022/10/09 03:48:20;;;;;;;2.58;1.70;;;7.30;68.20;;;;;;5055971;28;20560;-80
2022/10/09 03:50:46;;;;;;;4.00;1.80;;;7.30;68.10;;;;;;5037107;28;20309;-80
2022/10/09 03:53:13;;;;;;;2.97;1.63;;;7.20;68.10;;;;;;5064849;28;20028;-80
2022/10/09 03:55:39;;;;;;;3.35;1.88;;;7.20;68.10;;;;;;5064380;28;20028;-80
2022/10/09 03:58:05;;;;;;;3.88;2.10;;;7.20;68.10;;;;;;5044391;28;20158;-80
2022/10/09 04:00:31;;;;;;;3.10;1.93;;;7.20;68.10;;;;;;5072579;28;20020;-80
2022/10/09 04:02:57;;;;;;;4.20;2.00;;;7.20;68.10;;;;;;5068599;28;20323;-80
2022/10/09 04:05:22;;;;;;;2.72;1.80;;;7.20;68.10;;;;;;5059460;28;20475;-80
2022/10/09 04:07:48;;;;;;;2.80;2.00;;;7.20;68.20;;;;;;5046949;28;20531;-80
2022/10/09 04:10:13;;;;;;;3.10;1.80;;;7.10;68.20;;;;;;5068958;28;20024;-80
2022/10/09 04:12:39;;;;;;;3.77;1.90;;;7.10;68.20;;;;;;5073244;28;20266;-80
2022/10/09 04:15:06;;;;;;;3.13;2.07;;;7.10;68.40;;;;;;5065152;28;20269;-80
2022/10/09 04:17:31;;;;;;;3.00;1.80;;;7.10;68.40;;;;;;5058256;28;20024;-80
2022/10/09 04:19:57;;;;;;;2.72;1.90;;;7.00;68.20;;;;;;5058492;28;20032;-79
2022/10/09 04:22:23;;;;;;;3.90;1.80;;;7.00;68.40;;;;;;5062465;28;20046;-80
2022/10/09 04:24:49;;;;;;;3.47;1.90;;;7.00;68.40;;;;;;5056164;28;20024;-80
2022/10/09 04:27:15;;;;;;;2.78;1.90;;;7.00;68.40;;;;;;5071764;28;20081;-80
2022/10/09 04:29:40;;;;;;;3.67;2.00;;;7.00;68.60;;;;;;5039727;28;20081;-80
2022/10/09 04:32:06;;;;;;;3.38;1.90;;;7.00;68.60;;;;;;5060387;28;20680;-79
2022/10/09 04:34:32;;;;;;;3.93;2.00;;;7.00;68.70;;;;;;5064345;28;20415;-80
2022/10/09 04:36:58;;;;;;;2.53;1.77;;;6.90;68.60;;;;;;5062541;28;20032;-80
2022/10/09 04:39:23;;;;;;;3.90;2.00;;;6.90;68.60;;;;;;5037670;28;20461;-80
2022/10/09 04:41:49;;;;;;;4.18;1.83;;;6.90;68.70;;;;;;5055487;28;20024;-80
2022/10/09 04:44:15;;;;;;;3.23;1.80;;;6.90;68.80;;;;;;5077598;28;20626;-80
2022/10/09 04:46:40;;;;;;;2.78;1.80;;;6.90;68.90;;;;;;5050317;28;20039;-80
2022/10/09 04:49:09;;;;;;;2.87;1.77;;;6.90;68.90;;;;;;5061878;28;20040;-80
2022/10/09 04:51:35;;;;;;;2.85;1.73;;;6.90;68.90;;;;;;5047222;28;20047;-80
2022/10/09 04:54:01;;;;;;;3.45;1.90;;;6.90;69.00;;;;;;5043170;28;20657;-79
2022/10/09 04:56:27;;;;;;;2.30;1.63;;;6.80;68.90;;;;;;5049379;28;20022;-80
2022/10/09 04:58:52;;;;;;;3.03;1.80;;;6.80;68.90;;;;;;5041734;28;20031;-80
2022/10/09 05:01:22;;;;;;;2.97;1.80;;;6.80;69.00;;;;;;5051527;28;20782;-80
2022/10/09 05:03:49;;;;;;;3.70;1.93;;;6.80;69.20;;;;;;5054613;28;20424;-80
2022/10/09 05:06:15;;;;;;;3.10;1.80;;;6.80;69.00;;;;;;5025086;28;23175;-80
2022/10/09 05:08:41;;;;;;;2.70;1.60;;;6.80;68.90;;;;;;5055877;28;20031;-80
2022/10/09 05:11:12;;;;;;;3.10;1.90;;;6.80;69.00;;;;;;5052712;28;20335;-80
2022/10/09 05:13:40;;;;;;;3.03;1.85;;;6.80;69.40;;;;;;5063085;28;20082;-80
2022/10/09 05:16:10;;;;;;;2.93;1.90;;;6.80;69.90;;;;;;5053563;28;20340;-80
2022/10/09 05:18:41;;;;;;;2.80;1.77;;;6.80;69.30;;;;;;5053654;28;20028;-80
2022/10/09 05:21:08;;;;;;;4.00;1.88;;;6.70;69.30;;;;;;5039843;28;20272;-80
2022/10/09 05:23:34;;;;;;;4.00;2.20;;;6.80;69.20;;;;;;5056966;28;20125;-80
2022/10/09 05:26:06;;;;;;;3.03;1.80;;;6.70;69.30;;;;;;5050600;28;20532;-80
2022/10/09 05:28:32;;;;;;;2.30;1.60;;;6.70;69.60;;;;;;5073708;28;20024;-80
2022/10/09 05:30:58;;;;;;;3.17;1.83;;;6.70;69.40;;;;;;5057517;28;20020;-80
2022/10/09 05:33:24;;;;;;;3.30;1.80;;;6.70;69.50;;;;;;5065825;28;20032;-80
2022/10/09 05:35:58;;;;;;;3.13;1.90;;;6.60;69.50;;;;;;5063412;28;20473;-80
2022/10/09 05:38:25;;;;;;;3.60;1.70;;;6.70;69.90;;;;;;5031171;28;20023;-80
2022/10/09 05:40:56;;;;;;;4.15;2.25;;;6.60;69.60;;;;;;5062092;28;20032;-80
2022/10/09 05:43:24;;;;;;;4.03;1.90;;;6.60;69.90;;;;;;5067509;28;20112;-80
2022/10/09 05:45:50;;;;;;;3.07;1.83;;;6.60;69.70;;;;;;5060393;28;20028;-80
2022/10/09 05:48:16;;;;;;;4.15;2.15;;;6.60;69.70;;;;;;5057076;28;20604;-80
2022/10/09 05:50:42;;;;;;;3.35;1.85;;;6.60;70.40;;;;;;5058827;28;20028;-80
2022/10/09 05:53:08;;;;;;;2.80;1.77;;;6.60;69.70;;;;;;5041834;28;20258;-80
2022/10/09 05:55:33;;;;;;;3.73;2.17;;;6.60;69.70;;;;;;5057493;28;20283;-80
2022/10/09 05:57:59;;;;;;;3.77;2.10;;;6.60;69.80;;;;;;5054741;28;20094;-80
2022/10/09 06:00:25;;;;;;;3.00;1.90;;;6.60;69.80;;;;;;5055756;28;20032;-80
2022/10/09 06:02:50;;;;;;;3.60;1.83;;;6.60;69.70;;;;;;5067427;28;20499;-80
2022/10/09 06:05:16;;;;;;;2.13;1.52;;;6.60;69.80;;;;;;5055807;28;20660;-80
2022/10/09 06:07:42;;;;;;;4.07;1.80;;;6.60;69.80;;;;;;5054722;28;20078;-80
2022/10/09 06:10:08;;;;;;;3.13;1.73;;;6.50;69.80;;;;;;5057147;28;20528;-80
2022/10/09 06:12:33;;;;;;;2.85;1.73;;;6.50;69.90;;;;;;5054484;28;20028;-80
2022/10/09 06:14:59;;;;;;;3.40;1.70;;;6.50;69.90;;;;;;5063405;28;20148;-80
2022/10/09 06:17:25;;;;;;;2.60;1.50;;;6.50;70.00;;;;;;5065225;28;20031;-80
2022/10/09 06:19:50;;;;;;;2.90;1.80;;;6.60;70.20;;;;;;5065117;28;20551;-80
2022/10/09 06:22:16;;;;;;;4.13;1.80;;;6.60;70.30;;;;;;5035242;28;20202;-80
2022/10/09 06:24:41;;;;;;;3.63;1.95;;;6.60;70.40;;;;;;5052131;28;20021;-80
2022/10/09 06:27:07;;;;;;;2.73;1.70;;;6.60;70.60;;;;;;5033792;28;20275;-80
2022/10/09 06:29:33;;;;;;;2.97;1.77;;;6.60;70.60;;;;;;5030076;28;20036;-80
2022/10/09 06:31:58;;;;;;;3.30;1.60;;;6.70;70.70;;;;;;5054399;28;20278;-80
2022/10/09 06:34:24;;;;;;;3.58;1.90;;;6.70;70.80;;;;;;5059790;28;20032;-80
2022/10/09 06:36:49;;;;;;;3.10;1.50;;;6.70;70.90;;;;;;5038006;28;20153;-80
2022/10/09 06:39:15;;;;;;;3.50;1.60;;;6.70;71.00;;;;;;5045688;28;20032;-80
2022/10/09 06:41:41;;;;;;;3.08;1.70;;;6.80;71.10;;;;;;5051574;28;20048;-80
2022/10/09 06:44:10;;;;;;;2.80;1.90;;;6.80;71.10;;;;;;5042907;28;20293;-80
2022/10/09 06:46:38;;;;;;;3.37;1.83;;;6.80;71.30;;;;;;5075719;28;20337;-80
2022/10/09 06:49:06;;;;;;;6.75;3.10;;;6.90;71.40;;;;;;5054060;28;20261;-80
2022/10/09 06:51:33;;;;;;;30.20;10.90;;;6.90;71.40;;;;;;5043511;28;20056;-80
2022/10/09 06:54:01;;;;;;;36.38;12.65;;;7.00;71.50;;;;;;5037410;28;20057;-80
2022/10/09 06:56:29;;;;;;;38.00;14.00;;;7.00;71.60;;;;;;5052842;28;20039;-80
2022/10/09 06:58:58;;;;;;;50.60;18.60;;;7.00;71.70;;;;;;5026311;28;20039;-80
2022/10/09 07:01:26;;;;;;;50.42;18.48;;;7.10;71.80;;;;;;5045215;28;20361;-80
2022/10/09 07:03:57;;;;;;;40.25;14.52;;;7.10;71.90;;;;;;5048873;28;20046;-80
2022/10/09 07:06:26;;;;;;;23.02;8.60;;;7.20;72.00;;;;;;5061899;28;20019;-80
2022/10/09 07:08:54;;;;;;;18.52;7.25;;;7.30;72.20;;;;;;5047717;28;20792;-80
2022/10/09 07:11:28;;;;;;;12.10;4.40;;;7.30;72.50;;;;;;5058380;28;20040;-80
2022/10/09 07:13:56;;;;;;;10.73;4.03;;;7.50;73.40;;;;;;5036562;28;20090;-80
2022/10/09 07:16:43;;;;;;;6.43;3.15;;;7.60;73.70;;;;;;5057064;28;20015;-80
2022/10/09 07:19:10;;;;;;;4.97;2.45;;;7.90;75.40;;;;;;5066109;28;20056;-80
2022/10/09 07:21:37;;;;;;;5.35;3.08;;;8.10;75.40;;;;;;5067220;28;20099;-80
2022/10/09 07:24:04;;;;;;;5.27;2.40;;;8.50;76.90;;;;;;5045658;28;20232;-80
2022/10/09 07:26:31;;;;;;;4.22;2.25;;;9.00;78.50;;;;;;5039203;28;20103;-80
2022/10/09 07:28:57;;;;;;;4.63;2.60;;;9.60;79.70;;;;;;5037430;28;20029;-80
2022/10/09 07:31:23;;;;;;;3.83;2.25;;;10.20;80.40;;;;;;5049463;28;20021;-80
2022/10/09 07:33:51;;;;;;;5.03;2.20;;;10.90;80.80;;;;;;5039333;28;20100;-80
2022/10/09 07:36:17;;;;;;;3.60;2.17;;;11.60;80.90;;;;;;5059698;28;20225;-80
2022/10/09 07:38:47;;;;;;;4.10;2.40;;;12.30;80.80;;;;;;5061466;28;20025;-81
2022/10/09 07:41:13;;;;;;;4.32;2.30;;;12.90;80.30;;;;;;5061414;28;20304;-81
2022/10/09 07:43:40;;;;;;;4.00;2.63;;;13.60;80.00;;;;;;5057180;28;20480;-80
2022/10/09 07:46:10;;;;;;;5.18;2.60;;;14.20;79.60;;;;;;5022120;28;20093;-81
2022/10/09 07:48:36;;;;;;;4.30;2.58;;;14.80;79.10;;;;;;5061494;28;20040;-81
2022/10/09 07:51:14;;;;;;;4.53;2.67;;;15.40;78.60;;;;;;5061218;28;20220;-81
2022/10/09 07:53:40;;;;;;;4.78;2.60;;;15.90;77.10;;;;;;5061243;28;20028;-80
2022/10/09 07:56:06;;;;;;;3.23;2.33;;;16.40;77.20;;;;;;5028416;28;20969;-81
2022/10/09 07:58:32;;;;;;;4.80;2.50;;;16.90;76.70;;;;;;5051295;28;20428;-81
2022/10/09 08:01:05;;;;;;;4.00;2.40;;;17.30;76.20;;;;;;5034454;28;20028;-80
2022/10/09 08:03:31;;;;;;;5.10;2.57;;;17.80;74.30;;;;;;5057431;28;20487;-81
2022/10/09 08:05:57;;;;;;;4.03;2.60;;;18.00;73.90;;;;;;5047802;28;20118;-81
2022/10/09 08:08:23;;;;;;;5.03;2.40;;;18.30;72.30;;;;;;5053551;28;20024;-81
2022/10/09 08:10:48;;;;;;;5.27;2.50;;;18.40;70.70;;;;;;5047158;28;20048;-81
2022/10/09 08:13:14;;;;;;;5.03;2.33;;;18.50;69.70;;;;;;5050835;28;20445;-81
2022/10/09 08:15:43;;;;;;;4.20;2.35;;;18.50;68.50;;;;;;5024080;28;20035;-80
2022/10/09 08:18:10;;;;;;;4.35;2.13;;;18.30;67.30;;;;;;5058378;28;20021;-81
2022/10/09 08:20:37;;;;;;;3.73;2.20;;;18.20;66.50;;;;;;5059035;28;20040;-82
2022/10/09 08:23:02;;;;;;;4.15;2.22;;;18.00;66.20;;;;;;5060271;28;20103;-82
2022/10/09 08:25:28;;;;;;;4.95;2.42;;;17.70;65.60;;;;;;5058380;28;20352;-80
2022/10/09 08:27:55;;;;;;;4.10;2.50;;;17.50;65.60;;;;;;5018972;28;20376;-81
2022/10/09 08:30:21;;;;;;;4.38;2.20;;;17.30;66.50;;;;;;5041271;28;20021;-81
2022/10/09 08:32:46;;;;;;;3.63;2.20;;;17.20;66.90;;;;;;5027048;28;20020;-82
2022/10/09 08:35:12;;;;;;;3.63;2.20;;;17.10;67.40;;;;;;5049597;28;20040;-81
2022/10/09 08:37:38;;;;;;;4.18;2.20;;;17.00;66.80;;;;;;5047286;28;20030;-82
2022/10/09 08:40:05;;;;;;;4.18;2.58;;;17.00;67.50;;;;;;5060118;28;20021;-82
2022/10/09 08:42:41;;;;;;;4.68;2.53;;;17.00;69.50;;;;;;5054387;28;20391;-81
2022/10/09 08:45:16;;;;;;;4.47;2.40;;;17.30;70.20;;;;;;5033231;28;20016;-81
2022/10/09 08:47:59;;;;;;;4.28;2.30;;;17.60;71.40;;;;;;5047782;28;20031;-82
2022/10/09 08:50:29;;;;;;;3.50;2.10;;;18.10;71.90;;;;;;5050941;28;20439;-82
2022/10/09 08:53:04;;;;;;;2.80;1.83;;;18.60;73.50;;;;;;5061480;28;20028;-82
2022/10/09 08:55:45;;;;;;;4.38;1.80;;;19.10;72.70;;;;;;5048675;28;20043;-82
2022/10/09 08:58:17;;;;;;;3.80;1.93;;;19.70;71.60;;;;;;5062324;28;20296;-83
2022/10/09 09:00:53;;;;;;;4.78;1.98;;;20.30;72.30;;;;;;5042328;28;20024;-83
2022/10/09 09:03:31;;;;;;;3.38;1.80;;;20.90;72.40;;;;;;5055577;28;20063;-83
2022/10/09 09:06:25;;;;;;;3.00;1.92;;;21.50;71.30;;;;;;5057939;28;20024;-84
2022/10/09 09:09:15;;;;;;;4.45;2.17;;;22.20;68.30;;;;;;5042561;28;20036;-83
2022/10/09 09:11:48;;;;;;;3.03;1.60;;;22.60;69.30;;;;;;5040053;28;20104;-83
2022/10/09 09:14:47;;;;;;;3.05;1.65;;;23.10;69.40;;;;;;5043841;28;20233;-83
2022/10/09 09:17:40;;;;;;;3.13;1.60;;;23.50;64.90;;;;;;5046165;28;21444;-82
2022/10/09 09:20:26;;;;;;;3.10;1.52;;;23.90;64.00;;;;;;5041070;28;20605;-83
2022/10/09 09:22:52;;;;;;;1.83;1.60;;;24.20;65.40;;;;;;5060079;28;20020;-84
2022/10/09 09:25:19;;;;;;;3.17;1.53;;;24.50;65.40;;;;;;5049234;28;20962;-82
2022/10/09 09:27:46;;;;;;;2.17;1.70;;;24.80;64.60;;;;;;5057494;28;20020;-83
2022/10/09 09:30:12;;;;;;;2.42;1.67;;;25.10;64.40;;;;;;5026309;28;20276;-82
2022/10/09 09:32:43;;;;;;;1.80;1.42;;;25.40;63.80;;;;;;5047160;28;20024;-82
2022/10/09 09:35:14;;;;;;;3.17;1.60;;;25.70;61.90;;;;;;5045644;28;20374;-83
2022/10/09 09:37:40;;;;;;;3.65;1.58;;;26.10;61.40;;;;;;5044969;28;20040;-82
2022/10/09 09:40:14;;;;;;;3.42;1.83;;;26.40;61.90;;;;;;5046541;28;20035;-82
2022/10/09 09:42:41;;;;;;;2.40;1.85;;;26.70;59.20;;;;;;5084289;27;20094;-81
2022/10/09 09:45:16;;;;;;;3.00;1.40;;;26.90;59.60;;;;;;5037289;28;20021;-82
2022/10/09 09:47:48;;;;;;;3.10;1.30;;;27.20;57.70;;;;;;5048137;28;20385;-82
2022/10/09 09:50:13;;;;;;;2.08;1.60;;;27.40;57.30;;;;;;5043715;28;20032;-82
2022/10/09 09:52:44;;;;;;;2.60;1.50;;;27.60;57.90;;;;;;5058661;28;20046;-82
2022/10/09 09:55:26;;;;;;;2.40;1.52;;;27.80;56.60;;;;;;5067622;28;20167;-82
2022/10/09 09:58:03;;;;;;;4.82;1.70;;;28.00;54.80;;;;;;5064027;28;20028;-81
2022/10/09 10:00:29;;;;;;;2.63;1.50;;;28.20;55.10;;;;;;5046261;28;20717;-81
2022/10/09 10:03:10;;;;;;;2.25;1.45;;;28.30;55.60;;;;;;5038101;28;20150;-82
2022/10/09 10:05:37;;;;;;;1.97;1.40;;;28.50;53.10;;;;;;5058889;28;20135;-82
2022/10/09 10:08:18;;;;;;;2.90;1.40;;;28.60;54.40;;;;;;5059619;28;21149;-81
2022/10/09 10:10:46;;;;;;;1.85;1.27;;;28.80;52.00;;;;;;5048494;28;20037;-81
2022/10/09 10:13:15;;;;;;;2.17;1.20;;;28.90;53.30;;;;;;5058241;28;20447;-81
2022/10/09 10:15:49;;;;;;;2.20;1.20;;;29.00;52.00;;;;;;5046879;28;20032;-82
2022/10/09 10:18:17;;;;;;;3.20;1.50;;;29.20;50.80;;;;;;5019395;28;20028;-81
2022/10/09 10:20:44;;;;;;;2.65;1.38;;;29.30;52.00;;;;;;5042640;28;20066;-82
2022/10/09 10:23:54;;;;;;;2.08;1.52;;;29.40;50.90;;;;;;5059914;28;20197;-82
2022/10/09 10:26:40;;;;;;;2.55;1.60;;;29.60;48.80;;;;;;5045230;28;20028;-82
2022/10/09 10:29:17;;;;;;;2.80;1.40;;;29.80;49.70;;;;;;5059298;28;20072;-81
2022/10/09 10:32:33;;;;;;;2.17;1.30;;;29.90;49.80;;;;;;5036804;28;20618;-82
2022/10/09 10:35:39;;;;;;;2.45;1.60;;;30.10;47.90;;;;;;5023284;28;20044;-81
2022/10/09 10:38:20;;;;;;;2.05;1.35;;;30.40;49.40;;;;;;5026508;28;20029;-82
2022/10/09 10:40:57;;;;;;;3.72;1.75;;;30.60;47.80;;;;;;5038041;28;20511;-82
2022/10/09 10:43:43;;;;;;;2.40;1.50;;;30.70;48.40;;;;;;5054704;28;20016;-82
2022/10/09 10:46:22;;;;;;;2.23;1.47;;;30.80;46.90;;;;;;5034455;28;20409;-82
2022/10/09 10:48:49;;;;;;;2.92;1.63;;;30.90;46.50;;;;;;5072734;28;20048;-82
2022/10/09 10:51:37;;;;;;;2.60;1.30;;;31.00;47.30;;;;;;5028356;28;20146;-82
2022/10/09 10:54:18;;;;;;;2.20;1.48;;;31.10;45.50;;;;;;5051246;28;20500;-82
2022/10/09 10:56:54;;;;;;;2.13;1.40;;;31.20;45.20;;;;;;5045863;28;20016;-81
2022/10/09 10:59:20;;;;;;;2.97;1.47;;;31.20;46.40;;;;;;5059724;28;20453;-81
2022/10/09 11:02:04;;;;;;;4.25;1.60;;;31.20;46.40;;;;;;5036675;28;20120;-81
2022/10/09 11:04:50;;;;;;;2.57;1.40;;;31.30;44.70;;;;;;5016525;28;20498;-82
2022/10/09 11:07:32;;;;;;;2.58;1.23;;;31.40;45.00;;;;;;5038321;28;20364;-82
2022/10/09 11:10:04;;;;;;;3.17;1.50;;;31.40;44.90;;;;;;5036275;28;20117;-82
2022/10/09 11:12:53;;;;;;;2.03;1.50;;;31.60;44.20;;;;;;5069990;28;20081;-81
2022/10/09 11:15:42;;;;;;;3.13;1.35;;;31.70;44.90;;;;;;5054962;28;20037;-82
2022/10/09 11:18:19;;;;;;;2.33;1.50;;;31.90;42.10;;;;;;5045023;28;20116;-82
2022/10/09 11:21:20;;;;;;;2.70;1.70;;;32.10;44.80;;;;;;5053146;28;20028;-82
2022/10/09 11:24:00;;;;;;;2.30;1.50;;;32.10;41.60;;;;;;5057771;28;20036;-82
2022/10/09 11:26:55;;;;;;;3.40;1.65;;;32.10;42.60;;;;;;5061045;28;20028;-82
2022/10/09 11:29:28;;;;;;;2.05;1.40;;;32.10;42.20;;;;;;5062296;28;20172;-82
2022/10/09 11:32:31;;;;;;;2.03;1.40;;;32.00;42.50;;;;;;5060527;28;20532;-82
2022/10/09 11:35:16;;;;;;;2.92;1.30;;;32.10;41.50;;;;;;5039008;28;20057;-82
2022/10/09 11:37:47;;;;;;;1.52;1.25;;;32.10;41.20;;;;;;5047688;28;20052;-82
2022/10/09 11:40:16;;;;;;;2.45;1.40;;;32.10;42.10;;;;;;5032687;28;20797;-84
2022/10/09 11:42:46;;;;;;;1.90;1.38;;;32.10;42.10;;;;;;5037978;28;20016;-81
2022/10/09 11:45:21;;;;;;;2.40;1.20;;;32.10;41.70;;;;;;5052932;28;20586;-82
2022/10/09 11:47:57;;;;;;;2.35;1.27;;;32.20;41.60;;;;;;5054596;28;20401;-83
2022/10/09 11:50:46;;;;;;;2.67;1.30;;;32.30;42.00;;;;;;5034636;28;20264;-82
2022/10/09 11:53:19;;;;;;;3.05;1.60;;;32.40;40.50;;;;;;5024810;28;20399;-82
2022/10/09 11:55:46;;;;;;;1.65;1.25;;;32.50;40.60;;;;;;5070662;28;20051;-82
2022/10/09 11:58:18;;;;;;;2.80;1.73;;;32.60;41.70;;;;;;5048979;28;20478;-81
2022/10/09 12:00:45;;;;;;;2.38;1.40;;;32.70;41.30;;;;;;5064429;28;20016;-82
2022/10/09 12:03:32;;;;;;;2.72;1.63;;;32.70;40.60;;;;;;5038927;28;20536;-83
2022/10/09 12:06:16;;;;;;;2.05;1.40;;;32.70;38.60;;;;;;5041005;28;20020;-83
2022/10/09 12:09:00;;;;;;;2.63;1.75;;;32.70;38.70;;;;;;5067529;28;20081;-83
2022/10/09 12:11:26;;;;;;;1.70;1.10;;;32.80;39.10;;;;;;5048826;28;20525;-83
2022/10/09 12:13:55;;;;;;;1.55;1.20;;;32.80;41.00;;;;;;5053412;28;20036;-82
2022/10/09 12:16:33;;;;;;;2.22;1.40;;;32.90;39.70;;;;;;5057621;28;20505;-82
2022/10/09 12:19:01;;;;;;;2.10;1.30;;;33.00;38.30;;;;;;5040558;28;20031;-82
2022/10/09 12:21:36;;;;;;;1.80;1.15;;;33.00;39.50;;;;;;5035825;28;20369;-82
2022/10/09 12:24:03;;;;;;;1.87;1.10;;;33.10;38.50;;;;;;5038084;28;20039;-82
2022/10/09 12:26:29;;;;;;;1.75;1.17;;;33.10;39.30;;;;;;5052114;28;20028;-80
2022/10/09 12:29:00;;;;;;;1.98;1.40;;;33.10;39.00;;;;;;5066681;28;20025;-82
2022/10/09 12:31:35;;;;;;;1.10;0.98;;;33.20;38.10;;;;;;5064595;28;20028;-84
2022/10/09 12:34:25;;;;;;;1.50;1.17;;;33.20;37.80;;;;;;5069149;28;20117;-84
2022/10/09 12:37:01;;;;;;;1.30;0.93;;;33.30;38.00;;;;;;5050982;28;20158;-82
2022/10/09 12:39:27;;;;;;;2.65;1.50;;;33.40;39.10;;;;;;5034911;28;20086;-83
2022/10/09 12:41:56;;;;;;;1.90;1.20;;;33.50;38.80;;;;;;5066226;28;20222;-83
2022/10/09 12:44:33;;;;;;;2.35;1.27;;;33.50;38.00;;;;;;5052385;28;20028;-83
2022/10/09 12:47:02;;;;;;;1.77;1.20;;;33.50;37.20;;;;;;5060943;28;20035;-82
2022/10/09 12:49:28;;;;;;;2.57;1.10;;;33.50;37.10;;;;;;5062807;28;20032;-81
2022/10/09 12:51:55;;;;;;;1.25;1.00;;;33.40;37.30;;;;;;5051339;28;20514;-82
2022/10/09 12:54:23;;;;;;;1.50;1.00;;;33.40;37.10;;;;;;5047354;28;20231;-82
2022/10/09 12:56:51;;;;;;;1.38;0.90;;;33.30;37.00;;;;;;5054624;28;20669;-83
2022/10/09 12:59:17;;;;;;;2.10;1.30;;;33.30;36.90;;;;;;5045933;28;20020;-83
2022/10/09 13:01:44;;;;;;;1.77;1.17;;;33.30;36.80;;;;;;5034226;28;20406;-83
2022/10/09 13:04:30;;;;;;;1.20;0.90;;;33.20;36.30;;;;;;5065142;28;20020;-82
2022/10/09 13:06:58;;;;;;;2.47;0.95;;;33.10;35.30;;;;;;5036794;28;20054;-82
2022/10/09 13:09:31;;;;;;;2.50;1.33;;;33.00;36.10;;;;;;5048129;28;20089;-83
2022/10/09 13:12:14;;;;;;;1.25;1.00;;;32.90;36.00;;;;;;5056778;28;20089;-83